createdAt,value
2023-05-03T00:01:17.253Z,12.18
2023-05-03T00:04:20.359Z,12.16
2023-05-03T00:07:23.074Z,12.16
2023-05-03T00:10:26.248Z,12.16
2023-05-03T00:13:28.969Z,12.09
2023-05-03T00:16:32.119Z,12.07
2023-05-03T00:19:35.169Z,12.13
2023-05-03T00:22:38.426Z,12.12
2023-05-03T00:25:41.100Z,12.10
2023-05-03T00:28:44.063Z,12.08
2023-05-03T00:31:46.908Z,12.07
2023-05-03T00:34:57.264Z,12.07
2023-05-03T00:38:00.091Z,12.07
2023-05-03T00:41:05.104Z,12.05
2023-05-03T00:44:07.749Z,12.04
2023-05-03T00:47:11.061Z,12.04
2023-05-03T00:50:14.229Z,11.97
2023-05-03T00:53:17.511Z,12.03
2023-05-03T00:56:23.850Z,12.04
2023-05-03T00:59:27.837Z,12.04
2023-05-03T01:02:30.933Z,12.05
2023-05-03T01:06:01.604Z,11.98
2023-05-03T01:09:06.875Z,12.05
2023-05-03T01:12:30.706Z,12.04
2023-05-03T01:15:59.921Z,12.04
2023-05-03T01:19:38.989Z,12.04
2023-05-03T01:22:41.611Z,12.04
2023-05-03T01:25:44.817Z,12.03
2023-05-03T01:28:48.125Z,12.00
2023-05-03T01:31:59.895Z,12.03
2023-05-03T01:35:26.558Z,12.03
2023-05-03T01:38:37.278Z,12.05
2023-05-03T01:41:43.117Z,12.06
2023-05-03T01:44:47.348Z,12.04
2023-05-03T01:47:50.039Z,12.05
2023-05-03T01:50:52.983Z,12.03
2023-05-03T01:53:55.652Z,11.97
2023-05-03T01:56:58.616Z,12.02
2023-05-03T02:00:02.103Z,12.00
2023-05-03T02:03:15.826Z,11.99
2023-05-03T02:06:18.762Z,11.98
2023-05-03T02:09:21.950Z,11.92
2023-05-03T02:12:28.125Z,11.99
2023-05-03T02:15:32.103Z,11.91
2023-05-03T02:18:35.679Z,11.89
2023-05-03T02:21:38.408Z,11.95
2023-05-03T02:24:41.468Z,11.87
2023-05-03T02:27:44.194Z,11.94
2023-05-03T02:30:47.340Z,11.87
2023-05-03T02:33:50.130Z,11.95
2023-05-03T02:36:53.035Z,11.93
2023-05-03T02:39:56.943Z,11.94
2023-05-03T02:42:59.941Z,11.90
2023-05-03T02:46:03.538Z,11.91
2023-05-03T02:49:07.295Z,11.91
2023-05-03T02:52:10.282Z,11.90
2023-05-03T02:55:13.236Z,11.88
2023-05-03T02:58:16.488Z,11.86
2023-05-03T03:01:19.544Z,11.86
2023-05-03T03:04:22.919Z,11.86
2023-05-03T03:07:26.986Z,11.85
2023-05-03T03:10:30.344Z,11.82
2023-05-03T03:13:34.343Z,11.79
2023-05-03T03:16:37.768Z,11.81
2023-05-03T03:19:41.120Z,11.80
2023-05-03T03:22:45.480Z,11.78
2023-05-03T03:25:48.781Z,11.77
2023-05-03T03:28:52.163Z,11.76
2023-05-03T03:31:55.686Z,11.68
2023-05-03T03:34:59.687Z,11.74
2023-05-03T03:38:03.536Z,11.76
2023-05-03T03:41:06.874Z,11.77
2023-05-03T03:44:10.765Z,11.78
2023-05-03T03:47:19.316Z,11.71
2023-05-03T03:50:22.934Z,11.75
2023-05-03T03:53:25.673Z,11.73
2023-05-03T03:56:28.812Z,11.69
2023-05-03T03:59:31.637Z,11.64
2023-05-03T04:02:35.107Z,11.63
2023-05-03T04:05:38.437Z,11.61
2023-05-03T04:08:41.153Z,11.59
2023-05-03T04:11:46.121Z,11.57
2023-05-03T04:14:48.999Z,11.55
2023-05-03T04:17:52.062Z,11.55
2023-05-03T04:20:55.458Z,11.54
2023-05-03T04:23:58.624Z,11.56
2023-05-03T04:27:04.589Z,11.56
2023-05-03T04:30:09.647Z,11.54
2023-05-03T04:33:13.792Z,11.55
2023-05-03T04:36:17.085Z,11.53
2023-05-03T04:39:22.118Z,11.52
2023-05-03T04:42:25.148Z,11.52
2023-05-03T04:45:28.046Z,11.52
2023-05-03T04:48:32.133Z,11.51
2023-05-03T04:51:34.775Z,11.50
2023-05-03T04:54:38.289Z,11.47
2023-05-03T04:57:41.103Z,11.47
2023-05-03T05:00:45.404Z,11.47
2023-05-03T05:03:49.313Z,11.49
2023-05-03T05:06:54.147Z,11.43
2023-05-03T05:10:01.380Z,11.53
2023-05-03T05:13:05.497Z,11.53
2023-05-03T05:16:09.166Z,11.55
2023-05-03T05:19:13.368Z,11.55
2023-05-03T05:22:16.530Z,11.55
2023-05-03T05:25:19.962Z,11.59
2023-05-03T05:28:22.835Z,11.61
2023-05-03T05:31:25.948Z,11.61
2023-05-03T05:34:32.318Z,11.61
2023-05-03T05:37:39.615Z,11.56
2023-05-03T05:40:43.170Z,11.67
2023-05-03T05:43:46.258Z,11.69
2023-05-03T05:46:49.748Z,11.75
2023-05-03T05:49:53.594Z,11.80
2023-05-03T05:52:56.444Z,11.86
2023-05-03T05:55:59.876Z,11.92
2023-05-03T05:59:05.887Z,12.01
2023-05-03T06:02:18.948Z,12.02
2023-05-03T06:05:22.569Z,12.03
2023-05-03T06:08:25.925Z,12.04
2023-05-03T06:11:29.685Z,12.03
2023-05-03T06:14:32.650Z,12.05
2023-05-03T06:17:36.305Z,12.07
2023-05-03T06:20:39.396Z,12.11
2023-05-03T06:23:42.659Z,12.07
2023-05-03T06:26:46.092Z,12.11
2023-05-03T06:29:50.116Z,12.13
2023-05-03T06:32:53.122Z,12.08
2023-05-03T06:35:57.168Z,12.19
2023-05-03T06:38:59.883Z,12.26
2023-05-03T06:42:03.505Z,12.35
2023-05-03T06:45:08.964Z,12.49
2023-05-03T06:48:13.313Z,12.50
2023-05-03T06:51:16.157Z,12.51
2023-05-03T06:54:20.274Z,12.57
2023-05-03T06:57:22.956Z,12.57
2023-05-03T07:00:26.187Z,12.55
2023-05-03T07:03:29.095Z,12.67
2023-05-03T07:06:40.765Z,12.69
2023-05-03T07:09:51.356Z,12.79
2023-05-03T07:12:54.325Z,12.86
2023-05-03T07:15:57.908Z,12.86
2023-05-03T07:19:01.209Z,12.83
2023-05-03T07:22:04.411Z,12.84
2023-05-03T07:25:08.266Z,12.77
2023-05-03T07:28:11.087Z,12.74
2023-05-03T07:31:14.223Z,12.66
2023-05-03T07:34:16.965Z,12.66
2023-05-03T07:37:21.439Z,12.65
2023-05-03T07:40:24.304Z,12.77
2023-05-03T07:43:27.337Z,12.91
2023-05-03T07:46:34.955Z,13.13
2023-05-03T07:49:38.229Z,13.21
2023-05-03T07:52:43.389Z,13.23
2023-05-03T07:55:47.213Z,13.29
2023-05-03T07:58:57.027Z,13.54
2023-05-03T08:02:08.359Z,13.69
2023-05-03T08:05:14.730Z,13.93
2023-05-03T08:08:18.786Z,14.18
2023-05-03T08:11:21.748Z,14.34
2023-05-03T08:14:24.533Z,14.44
2023-05-03T08:17:28.066Z,14.57
2023-05-03T08:20:31.994Z,14.59
2023-05-03T08:23:35.140Z,15.06
2023-05-03T08:26:38.037Z,15.78
2023-05-03T08:29:41.233Z,16.71
2023-05-03T08:32:43.997Z,17.14
2023-05-03T08:35:48.741Z,17.11
2023-05-03T08:38:52.167Z,16.68
2023-05-03T08:41:55.517Z,16.24
2023-05-03T08:44:58.487Z,15.55
2023-05-03T08:48:03.458Z,15.54
2023-05-03T08:51:10.102Z,15.37
2023-05-03T08:54:15.630Z,15.16
2023-05-03T08:57:18.963Z,15.12
2023-05-03T09:00:29.113Z,15.46
2023-05-03T09:03:32.536Z,15.77
2023-05-03T09:06:36.807Z,16.05
2023-05-03T09:09:39.926Z,16.67
2023-05-03T09:12:45.647Z,16.82
2023-05-03T09:15:55.127Z,16.66
2023-05-03T09:19:04.651Z,16.74
2023-05-03T09:22:08.353Z,16.94
2023-05-03T09:25:12.211Z,16.98
2023-05-03T09:28:20.342Z,16.93
2023-05-03T09:31:23.506Z,16.95
2023-05-03T09:34:26.851Z,16.90
2023-05-03T09:37:38.778Z,16.88
2023-05-03T09:40:48.999Z,16.63
2023-05-03T09:43:52.867Z,16.85
2023-05-03T09:47:06.519Z,17.30
2023-05-03T09:50:09.604Z,17.42
2023-05-03T09:53:13.094Z,17.68
2023-05-03T09:56:17.284Z,18.01
2023-05-03T09:59:20.938Z,18.05
2023-05-03T10:02:24.255Z,18.19
2023-05-03T10:05:33.047Z,18.03
2023-05-03T10:08:42.934Z,17.97
2023-05-03T10:11:52.788Z,17.74
2023-05-03T10:14:57.913Z,18.22
2023-05-03T10:18:04.110Z,18.08
2023-05-03T10:21:12.496Z,17.95
2023-05-03T10:24:16.878Z,18.07
2023-05-03T10:27:21.244Z,17.91
2023-05-03T10:30:34.852Z,18.02
2023-05-03T10:33:38.380Z,18.21
2023-05-03T10:36:49.943Z,17.96
2023-05-03T10:39:53.812Z,18.00
2023-05-03T10:42:56.710Z,18.10
2023-05-03T10:46:05.018Z,18.07
2023-05-03T10:49:19.609Z,17.92
2023-05-03T10:52:46.346Z,18.57
2023-05-03T10:56:12.660Z,18.20
2023-05-03T10:59:19.249Z,18.18
2023-05-03T11:02:31.278Z,18.25
2023-05-03T11:05:34.293Z,18.58
2023-05-03T11:08:40.256Z,18.42
2023-05-03T11:11:43.610Z,18.08
2023-05-03T11:14:46.287Z,17.79
2023-05-03T11:17:49.315Z,17.63
2023-05-03T11:20:53.771Z,17.57
2023-05-03T11:23:58.992Z,17.27
2023-05-03T11:27:08.076Z,17.37
2023-05-03T11:30:12.173Z,17.44
2023-05-03T11:33:16.316Z,17.57
2023-05-03T11:36:19.186Z,17.45
2023-05-03T11:39:22.477Z,17.54
2023-05-03T11:42:26.839Z,17.37
2023-05-03T11:45:32.908Z,17.04
2023-05-03T11:48:36.823Z,16.87
2023-05-03T11:51:39.604Z,17.07
2023-05-03T11:54:43.237Z,17.01
2023-05-03T11:57:46.380Z,17.03
2023-05-03T12:00:51.611Z,17.20
2023-05-03T12:04:03.930Z,17.05
2023-05-03T12:07:08.136Z,16.91
2023-05-03T12:10:23.019Z,16.97
2023-05-03T12:13:39.835Z,16.78
2023-05-03T12:16:51.843Z,16.97
2023-05-03T12:20:51.893Z,17.11
2023-05-03T12:23:41.665Z,17.19
2023-05-03T12:26:47.268Z,17.00
2023-05-03T12:29:52.096Z,17.15
2023-05-03T12:32:58.387Z,17.13
2023-05-03T12:36:04.420Z,17.07
2023-05-03T12:39:10.051Z,16.78
2023-05-03T12:42:15.163Z,16.85
2023-05-03T12:48:25.023Z,16.93
2023-05-03T12:51:32.821Z,16.92
2023-05-03T12:54:38.856Z,16.76
2023-05-03T12:57:45.910Z,16.78
2023-05-03T13:01:37.077Z,16.94
2023-05-03T13:07:30.487Z,16.61
2023-05-03T13:10:34.296Z,16.50
2023-05-03T13:13:37.223Z,16.35
2023-05-03T13:16:41.505Z,16.41
2023-05-03T13:19:44.998Z,16.16
2023-05-03T13:22:50.830Z,16.12
2023-05-03T13:25:57.295Z,16.06
2023-05-03T13:29:01.286Z,16.04
2023-05-03T13:32:04.459Z,16.02
2023-05-03T13:35:08.506Z,15.93
2023-05-03T13:38:11.695Z,16.03
2023-05-03T13:41:15.069Z,16.09
2023-05-03T13:44:19.362Z,16.04
2023-05-03T13:47:22.150Z,15.96
2023-05-03T13:50:28.577Z,16.01
2023-05-03T13:53:31.315Z,15.89
2023-05-03T13:56:35.659Z,16.13
2023-05-03T13:59:38.460Z,16.05
2023-05-03T14:02:42.611Z,16.09
2023-05-03T14:05:46.024Z,16.23
2023-05-03T14:08:49.650Z,16.20
2023-05-03T14:11:55.113Z,16.18
2023-05-03T14:15:03.712Z,16.18
2023-05-03T14:18:08.882Z,16.08
2023-05-03T14:21:12.762Z,15.95
2023-05-03T14:24:16.309Z,15.86
2023-05-03T14:27:21.907Z,15.70
2023-05-03T14:30:25.478Z,15.62
2023-05-03T14:33:28.468Z,15.41
2023-05-03T14:36:36.300Z,15.51
2023-05-03T14:39:40.069Z,15.68
2023-05-03T14:42:43.276Z,15.82
2023-05-03T14:45:46.987Z,15.77
2023-05-03T14:48:50.058Z,15.60
2023-05-03T14:51:53.409Z,15.52
2023-05-03T14:54:56.917Z,15.53
2023-05-03T14:57:59.585Z,15.77
2023-05-03T15:01:02.790Z,15.81
2023-05-03T15:04:07.742Z,15.79
2023-05-03T15:07:11.444Z,15.70
2023-05-03T15:10:14.145Z,15.81
2023-05-03T15:13:17.651Z,15.67
2023-05-03T15:16:20.638Z,15.68
2023-05-03T15:19:24.083Z,15.76
2023-05-03T15:22:27.314Z,15.68
2023-05-03T15:25:30.874Z,15.71
2023-05-03T15:28:33.810Z,15.70
2023-05-03T15:31:38.173Z,15.55
2023-05-03T15:34:40.916Z,15.54
2023-05-03T15:37:43.964Z,15.54
2023-05-03T15:40:48.214Z,15.39
2023-05-03T15:43:51.571Z,15.32
2023-05-03T15:46:54.519Z,15.28
2023-05-03T15:49:58.169Z,15.02
2023-05-03T15:53:01.136Z,14.93
2023-05-03T15:56:05.316Z,14.86
2023-05-03T15:59:08.749Z,14.82
2023-05-03T16:02:11.773Z,14.77
2023-05-03T16:05:14.846Z,14.70
2023-05-03T16:08:19.991Z,14.62
2023-05-03T16:11:23.212Z,14.64
2023-05-03T16:14:26.120Z,14.59
2023-05-03T16:17:37.306Z,14.56
2023-05-03T16:20:41.690Z,14.50
2023-05-03T16:23:44.775Z,14.56
2023-05-03T16:26:47.370Z,14.50
2023-05-03T16:29:51.583Z,14.44
2023-05-03T16:32:54.722Z,14.44
2023-05-03T16:35:57.808Z,14.34
2023-05-03T16:39:00.728Z,14.30
2023-05-03T16:42:04.049Z,14.24
2023-05-03T16:45:08.587Z,14.13
2023-05-03T16:48:13.074Z,14.11
2023-05-03T16:51:20.947Z,14.05
2023-05-03T16:54:24.391Z,14.05
2023-05-03T16:57:27.318Z,13.98
2023-05-03T17:00:34.583Z,13.89
2023-05-03T17:03:37.752Z,13.87
2023-05-03T17:06:41.141Z,13.78
2023-05-03T17:09:43.857Z,13.81
2023-05-03T17:12:47.853Z,13.73
2023-05-03T17:15:50.648Z,13.56
2023-05-03T17:18:53.700Z,13.58
2023-05-03T17:21:56.499Z,13.53
2023-05-03T17:24:59.630Z,13.44
2023-05-03T17:28:02.370Z,13.31
2023-05-03T17:31:07.118Z,13.28
2023-05-03T17:34:10.056Z,13.24
2023-05-03T17:37:13.046Z,13.17
2023-05-03T17:40:15.808Z,13.12
2023-05-03T17:43:18.900Z,13.07
2023-05-03T17:46:22.327Z,13.01
2023-05-03T17:49:25.676Z,12.92
2023-05-03T17:52:28.447Z,12.88
2023-05-03T17:55:40.922Z,12.81
2023-05-03T17:58:44.243Z,12.79
2023-05-03T18:01:48.497Z,12.71
2023-05-03T18:04:51.683Z,12.62
2023-05-03T18:07:54.428Z,12.62
2023-05-03T18:10:57.756Z,12.59
2023-05-03T18:14:00.970Z,12.56
2023-05-03T18:17:04.034Z,12.54
2023-05-03T18:20:07.596Z,12.55
2023-05-03T18:23:14.660Z,12.55
2023-05-03T18:26:17.329Z,12.57
2023-05-03T18:29:20.445Z,12.52
2023-05-03T18:32:23.818Z,12.60
2023-05-03T18:35:26.776Z,12.64
2023-05-03T18:38:29.447Z,12.64
2023-05-03T18:41:32.633Z,12.66
2023-05-03T18:44:35.484Z,12.68
2023-05-03T18:47:38.655Z,12.68
2023-05-03T18:50:45.435Z,12.62
2023-05-03T18:53:48.516Z,12.71
2023-05-03T18:56:51.773Z,12.62
2023-05-03T19:00:07.992Z,12.84
2023-05-03T19:03:11.220Z,12.92
2023-05-03T19:06:14.589Z,12.95
2023-05-03T19:09:17.954Z,12.91
2023-05-03T19:12:20.987Z,12.86
2023-05-03T19:15:23.804Z,12.85
2023-05-03T19:18:26.782Z,12.75
2023-05-03T19:21:29.768Z,12.72
2023-05-03T19:24:32.888Z,12.68
2023-05-03T19:27:35.527Z,12.53
2023-05-03T19:30:41.387Z,12.42
2023-05-03T19:33:44.189Z,12.35
2023-05-03T19:36:47.393Z,12.20
2023-05-03T19:39:50.160Z,12.22
2023-05-03T19:42:54.401Z,12.13
2023-05-03T19:45:57.938Z,12.13
2023-05-03T19:49:01.568Z,12.10
2023-05-03T19:52:05.956Z,12.08
2023-05-03T19:55:09.427Z,12.02
2023-05-03T19:58:12.074Z,11.89
2023-05-03T20:01:15.347Z,11.86
2023-05-03T20:04:18.700Z,11.75
2023-05-03T20:07:21.480Z,11.66
2023-05-03T20:10:25.550Z,11.67
2023-05-03T20:13:30.194Z,11.60
2023-05-03T20:16:38.723Z,11.67
2023-05-03T20:19:41.805Z,11.66
2023-05-03T20:22:45.782Z,11.60
2023-05-03T20:25:48.499Z,11.57
2023-05-03T20:28:51.573Z,11.52
2023-05-03T20:31:54.320Z,11.49
2023-05-03T20:34:57.327Z,11.45
2023-05-03T20:38:00.110Z,11.43
2023-05-03T20:41:05.418Z,11.29
2023-05-03T20:44:08.122Z,11.35
2023-05-03T20:47:11.021Z,11.33
2023-05-03T20:50:13.769Z,11.32
2023-05-03T20:53:16.812Z,11.28
2023-05-03T20:56:19.534Z,11.24
2023-05-03T20:59:22.771Z,11.31
2023-05-03T21:02:25.620Z,11.22
2023-05-03T21:05:28.871Z,11.29
2023-05-03T21:08:31.780Z,11.29
2023-05-03T21:11:36.452Z,11.27
2023-05-03T21:14:39.164Z,11.26
2023-05-03T21:17:42.192Z,11.25
2023-05-03T21:20:46.668Z,11.21
2023-05-03T21:23:49.700Z,11.20
2023-05-03T21:26:52.365Z,11.07
2023-05-03T21:29:55.358Z,11.16
2023-05-03T21:32:58.079Z,11.14
2023-05-03T21:36:01.130Z,11.11
2023-05-03T21:39:04.087Z,11.07
2023-05-03T21:42:07.464Z,10.97
2023-05-03T21:45:11.654Z,11.03
2023-05-03T21:48:14.647Z,11.01
2023-05-03T21:51:21.703Z,10.98
2023-05-03T21:54:24.811Z,10.98
2023-05-03T21:57:27.718Z,10.98
2023-05-03T22:00:31.806Z,10.89
2023-05-03T22:03:35.938Z,10.94
2023-05-03T22:06:38.690Z,10.92
2023-05-03T22:09:41.719Z,10.91
2023-05-03T22:12:44.546Z,10.90
2023-05-03T22:15:47.478Z,10.88
2023-05-03T22:18:50.147Z,10.87
2023-05-03T22:21:53.264Z,10.88
2023-05-03T22:24:59.871Z,10.86
2023-05-03T22:28:02.872Z,10.84
2023-05-03T22:31:06.318Z,10.83
2023-05-03T22:34:09.499Z,10.80
2023-05-03T22:37:12.596Z,10.79
2023-05-03T22:40:15.530Z,10.71
2023-05-03T22:43:18.195Z,10.76
2023-05-03T22:46:21.636Z,10.74
2023-05-03T22:49:24.845Z,10.71
2023-05-03T22:52:27.960Z,10.68
2023-05-03T22:55:30.609Z,10.67
2023-05-03T22:58:34.425Z,10.59
2023-05-03T23:01:37.570Z,10.65
2023-05-03T23:04:40.574Z,10.65
2023-05-03T23:07:43.423Z,10.59
2023-05-03T23:10:47.353Z,10.68
2023-05-03T23:13:50.122Z,10.62
2023-05-03T23:16:53.178Z,10.58
2023-05-03T23:19:55.910Z,10.63
2023-05-03T23:22:58.894Z,10.56
2023-05-03T23:26:01.801Z,10.61
2023-05-03T23:29:05.271Z,10.60
2023-05-03T23:32:08.382Z,10.59
2023-05-03T23:35:11.945Z,10.59
2023-05-03T23:38:15.061Z,10.57
2023-05-03T23:41:19.005Z,10.57
2023-05-03T23:44:21.766Z,10.54
2023-05-03T23:47:24.775Z,10.55
2023-05-03T23:50:27.817Z,10.55
2023-05-03T23:53:30.816Z,10.48
2023-05-03T23:56:33.613Z,10.50
2023-05-03T23:59:36.585Z,10.46
